Terminal Aerodrome Forecast
Issued by NWS

Home | Current Version | Previous Version | Text Only | Print | Product List | Glossary On
Versions: 1 2 3 4 5 6 7 8 9 10 11 12 13 14 15 16 17 18 19 20 21 22 23 24 25 26 27 28 29
000
FTUS43 KDLH 031144
TAFHIB
TAF
KHIB 031144Z 0312/0412 27006KT P6SM OVC012
     FM031600 22004KT P6SM OVC014
     FM032000 18005KT P6SM OVC018
     FM040700 15005KT P6SM VCSH OVC025=

USA.gov is the U.S. government's official web portal to all federal, state and local government web resources and services.